Time;durP1;ratioP1;P1;durP2;ratioP2;P2;SDS_P1;SDS_P2;PMS_P1;PMS_P2;Temp;Humidity;BMP_temperature;BMP_pressure;BME280_temperature;BME280_humidity;BME280_pressure;Samples;Min_cycle;Max_cycle;Signal;HPM_P1;HPM_P2
2023/01/21 00:00:20;;;;;;;14.43;3.30;;;;;;;21.54;56.97;99984.94;7313300;19;129082;-39
2023/01/21 00:02:45;;;;;;;32.00;4.77;;;;;;;21.51;57.06;99977.34;7311428;19;129147;-38
2023/01/21 00:05:11;;;;;;;46.35;6.97;;;;;;;21.53;56.93;99991.16;7311772;19;129447;-38
2023/01/21 00:07:36;;;;;;;26.25;4.38;;;;;;;21.52;56.83;99988.63;7309554;19;129641;-40
2023/01/21 00:10:02;;;;;;;18.75;3.47;;;;;;;21.49;56.58;99992.34;7310603;19;129109;-40
2023/01/21 00:12:27;;;;;;;23.73;4.10;;;;;;;21.46;56.30;99989.16;7312881;19;129736;-39
2023/01/21 00:14:52;;;;;;;16.52;2.97;;;;;;;21.34;56.45;99977.09;7307415;19;129423;-39
2023/01/21 00:17:18;;;;;;;21.77;3.70;;;;;;;21.45;56.75;100001.41;7310416;19;129950;-38
2023/01/21 00:19:43;;;;;;;37.22;5.55;;;;;;;21.45;56.70;100000.59;7309374;19;129906;-37
2023/01/21 00:22:08;;;;;;;32.37;5.07;;;;;;;21.43;56.87;99997.28;7311929;19;129003;-37
2023/01/21 00:24:34;;;;;;;7.50;2.47;;;;;;;21.42;57.38;100001.66;7309648;19;129945;-41
2023/01/21 00:26:59;;;;;;;15.37;3.10;;;;;;;21.29;57.12;99980.09;7309332;19;129615;-36
2023/01/21 00:29:25;;;;;;;42.65;5.53;;;;;;;21.38;57.14;100002.06;7312476;19;129495;-37
2023/01/21 00:31:50;;;;;;;19.87;3.47;;;;;;;21.37;56.95;99997.78;7310467;19;129118;-37
2023/01/21 00:34:16;;;;;;;22.65;3.70;;;;;;;21.36;57.15;99996.13;7309873;19;130291;-39
2023/01/21 00:36:41;;;;;;;39.00;5.13;;;;;;;21.35;57.14;99995.31;7307089;19;129310;-40
2023/01/21 00:39:07;;;;;;;25.42;3.70;;;;;;;21.34;56.61;99979.72;7312450;19;129429;-38
2023/01/21 00:41:32;;;;;;;20.00;3.58;;;;;;;21.62;56.17;99995.59;7312781;19;129166;-37
2023/01/21 00:43:58;;;;;;;15.33;3.10;;;;;;;21.79;55.69;99996.78;7309354;19;129292;-40
2023/01/21 00:46:23;;;;;;;22.75;3.63;;;;;;;21.91;55.56;99988.72;7309318;19;131069;-38
2023/01/21 00:48:48;;;;;;;28.92;4.13;;;;;;;22.08;55.13;99991.69;7310198;19;129885;-39
2023/01/21 00:51:14;;;;;;;14.07;3.15;;;;;;;22.09;54.30;99975.00;7311622;19;129244;-38
2023/01/21 00:53:42;;;;;;;22.23;3.78;;;;;;;22.36;54.62;100004.03;7308196;19;130795;-39
2023/01/21 00:56:11;;;;;;;29.63;4.65;;;;;;;22.46;53.62;100004.88;7305580;19;129255;-35
2023/01/21 00:58:36;;;;;;;31.33;4.30;;;;;;;22.53;53.83;100006.84;7309242;19;129554;-35
2023/01/21 01:01:04;;;;;;;20.98;3.30;;;;;;;22.60;53.46;99997.47;7310099;19;129069;-41
2023/01/21 01:03:31;;;;;;;25.20;3.95;;;;;;;22.59;53.12;100013.34;7307194;19;129283;-36
2023/01/21 01:06:15;;;;;;;12.70;3.03;;;;;;;22.55;53.34;100012.78;7309355;19;129404;-38
2023/01/21 01:08:42;;;;;;;23.83;3.88;;;;;;;22.35;53.26;99997.13;7309477;19;129296;-39
2023/01/21 01:11:07;;;;;;;33.72;4.28;;;;;;;22.40;54.42;100015.88;7310716;19;129899;-36
2023/01/21 01:13:34;;;;;;;19.27;3.60;;;;;;;22.33;54.06;100023.44;7306674;19;129466;-37
2023/01/21 01:16:01;;;;;;;24.35;4.07;;;;;;;22.24;53.96;100019.03;7306493;19;129620;-37
2023/01/21 01:18:28;;;;;;;28.85;4.00;;;;;;;22.22;54.94;100023.56;7306088;19;129837;-40
2023/01/21 01:20:54;;;;;;;23.50;3.10;;;;;;;22.19;54.70;100012.50;7311834;19;129448;-36
2023/01/21 01:23:19;;;;;;;17.92;2.75;;;;;;;22.14;54.95;100014.72;7308810;19;130189;-39
2023/01/21 01:25:54;;;;;;;22.40;3.75;;;;;;;22.06;55.14;100010.16;7308009;19;129896;-38
2023/01/21 01:28:20;;;;;;;19.05;3.38;;;;;;;22.01;55.32;100008.88;7308804;19;129306;-38
2023/01/21 01:30:45;;;;;;;34.33;4.97;;;;;;;21.93;55.29;100009.53;7307428;19;129006;-38
2023/01/21 01:33:10;;;;;;;18.45;2.92;;;;;;;21.89;55.75;100011.59;7308853;19;129524;-38
2023/01/21 01:35:36;;;;;;;18.40;3.03;;;;;;;21.85;55.50;100004.94;7303811;19;131488;-37
2023/01/21 01:38:06;;;;;;;17.38;3.35;;;;;;;21.82;55.75;100020.09;7309525;19;129039;-40
2023/01/21 01:40:32;;;;;;;32.97;4.22;;;;;;;21.77;55.54;100015.25;7308603;19;129733;-38
2023/01/21 01:42:58;;;;;;;18.97;3.30;;;;;;;21.71;55.83;100020.97;7309241;19;129523;-38
2023/01/21 01:45:23;;;;;;;28.63;4.37;;;;;;;21.69;56.62;100019.44;7307188;19;129285;-40
2023/01/21 01:47:59;;;;;;;22.47;3.53;;;;;;;21.60;56.20;100021.03;7309339;19;129018;-38
2023/01/21 01:50:28;;;;;;;34.15;4.57;;;;;;;21.60;56.29;100028.09;7306999;19;130135;-38
2023/01/21 01:52:55;;;;;;;25.45;3.72;;;;;;;21.54;56.26;100020.72;7307672;19;130135;-36
2023/01/21 01:55:21;;;;;;;;;;;;;;;21.47;57.17;100019.59;7307487;19;130496;-39
2023/01/21 01:57:50;;;;;;;53.65;5.70;;;;;;;21.48;57.01;100016.03;7307630;19;129207;-38
2023/01/21 02:00:16;;;;;;;22.50;3.58;;;;;;;21.45;56.29;100024.94;7307557;19;129093;-40
2023/01/21 02:02:42;;;;;;;24.92;4.15;;;;;;;21.43;56.99;100016.41;7308901;19;130267;-39
2023/01/21 02:05:09;;;;;;;28.65;4.30;;;;;;;21.38;56.86;100026.44;7305386;19;129324;-36
2023/01/21 02:07:39;;;;;;;26.42;4.00;;;;;;;21.36;57.22;100028.34;7308487;19;129075;-38
2023/01/21 02:10:07;;;;;;;22.52;3.60;;;;;;;21.34;56.95;100032.84;7304723;19;129601;-38
2023/01/21 02:12:34;;;;;;;17.27;3.20;;;;;;;21.32;56.84;100032.16;7308194;19;130793;-38
2023/01/21 02:15:00;;;;;;;16.10;3.08;;;;;;;21.28;57.41;100028.16;7307397;19;129695;-38
2023/01/21 02:17:37;;;;;;;18.00;2.97;;;;;;;21.31;57.37;100025.28;7306680;19;129059;-38
2023/01/21 02:20:29;;;;;;;20.60;3.17;;;;;;;21.32;56.87;100016.47;7308176;19;129166;-36
2023/01/21 02:23:06;;;;;;;15.57;2.58;;;;;;;21.62;56.40;100041.84;7307979;19;131750;-38
2023/01/21 02:26:10;;;;;;;29.45;4.38;;;;;;;21.81;55.57;100045.44;7307033;19;130376;-36
2023/01/21 02:29:06;;;;;;;35.97;5.07;;;;;;;21.86;55.47;100043.28;7304916;19;132505;-39
2023/01/21 02:31:43;;;;;;;21.23;3.60;;;;;;;22.12;54.28;100059.34;7316321;19;130351;-39
2023/01/21 02:34:17;;;;;;;30.92;4.35;;;;;;;22.28;54.13;100054.44;7310768;19;129238;-39
2023/01/21 02:36:53;;;;;;;18.70;3.05;;;;;;;22.41;53.95;100052.41;7313455;19;129718;-37
2023/01/21 02:40:16;;;;;;;36.53;4.87;;;;;;;22.54;53.58;100050.44;7314315;19;130023;-39
2023/01/21 02:42:46;;;;;;;19.45;3.13;;;;;;;22.63;53.15;100051.41;7309699;19;129348;-38
2023/01/21 02:45:28;;;;;;;39.35;5.70;;;;;;;22.62;53.15;100049.75;7309446;19;129364;-38
2023/01/21 02:48:09;;;;;;;16.80;2.83;;;;;;;22.58;53.60;100050.97;7311685;19;129554;-40
2023/01/21 02:50:40;;;;;;;31.05;4.15;;;;;;;22.51;53.29;100055.09;7314228;19;129791;-39
2023/01/21 02:53:06;;;;;;;29.35;4.25;;;;;;;22.35;53.62;100036.41;7311379;19;129194;-39
2023/01/21 02:55:35;;;;;;;36.97;4.83;;;;;;;22.34;54.08;100053.09;7311709;19;129612;-37
2023/01/21 02:58:13;;;;;;;21.73;3.22;;;;;;;22.26;54.41;100066.03;7312592;19;129778;-37
2023/01/21 03:01:14;;;;;;;20.02;3.22;;;;;;;22.17;54.64;100061.56;7312376;19;129207;-37
2023/01/21 03:03:46;;;;;;;29.17;3.83;;;;;;;22.12;54.67;100067.22;7311975;19;129678;-38
2023/01/21 03:06:37;;;;;;;21.10;3.40;;;;;;;22.09;54.73;100064.03;7312760;19;129950;-39
2023/01/21 03:09:18;;;;;;;17.40;2.88;;;;;;;21.96;55.61;100075.53;7311031;19;131101;-38
2023/01/21 03:11:54;;;;;;;8.60;2.25;;;;;;;21.88;55.13;100067.50;7315033;19;129092;-39
2023/01/21 03:17:46;;;;;;;18.35;2.78;;;;;;;21.65;55.59;100049.47;7312908;19;128886;-39
2023/01/21 03:20:17;;;;;;;20.23;3.42;;;;;;;21.70;56.08;100069.03;7310909;19;129763;-36
2023/01/21 03:22:43;;;;;;;10.38;2.42;;;;;;;21.62;56.13;100066.22;7313966;19;130082;-40
2023/01/21 03:25:12;;;;;;;30.87;4.23;;;;;;;21.59;55.86;100076.13;7311856;19;130110;-35
2023/01/21 03:27:41;;;;;;;17.45;2.53;;;;;;;21.45;56.29;100058.94;7314458;19;129751;-35
2023/01/21 03:30:15;;;;;;;19.48;3.13;;;;;;;21.48;56.61;100077.03;7310417;19;129618;-39
2023/01/21 03:32:44;;;;;;;24.30;3.50;;;;;;;21.45;56.43;100081.69;7312575;19;130332;-39
2023/01/21 03:35:13;;;;;;;28.20;3.83;;;;;;;21.43;57.04;100087.03;7310862;19;131054;-38
2023/01/21 03:37:48;;;;;;;30.33;4.18;;;;;;;21.43;57.19;100080.97;7313217;19;129600;-38
2023/01/21 03:40:22;;;;;;;23.30;3.42;;;;;;;21.59;56.63;100076.97;7312870;19;130573;-41
2023/01/21 03:42:49;;;;;;;20.40;3.00;;;;;;;21.76;56.14;100084.28;7312085;19;129798;-41
2023/01/21 03:45:20;;;;;;;41.47;5.65;;;;;;;21.91;55.53;100090.81;7311306;19;129731;-40
2023/01/21 03:47:53;;;;;;;21.50;3.20;;;;;;;22.07;54.74;100089.50;7312139;19;130158;-40
2023/01/21 03:50:29;;;;;;;39.50;4.65;;;;;;;22.18;54.71;100089.44;7312354;19;129495;-36
2023/01/21 03:52:55;;;;;;;29.95;4.03;;;;;;;22.34;54.35;100095.00;7312097;19;129308;-39
2023/01/21 03:55:20;;;;;;;58.75;8.38;;;;;;;22.51;53.67;100086.53;7311333;19;129985;-40
2023/01/21 03:57:46;;;;;;;18.88;2.72;;;;;;;22.60;52.98;100096.22;7312304;19;129241;-40
2023/01/21 04:00:12;;;;;;;33.53;4.35;;;;;;;22.63;53.45;100085.47;7311545;19;130292;-39
2023/01/21 04:02:38;;;;;;;26.43;3.87;;;;;;;22.59;52.95;100081.47;7307861;19;129794;-39
2023/01/21 04:05:03;;;;;;;17.27;2.58;;;;;;;22.58;53.68;100088.50;7313329;19;129097;-38
2023/01/21 04:07:29;;;;;;;22.55;3.20;;;;;;;22.52;53.92;100090.78;7309749;19;129959;-39
2023/01/21 04:09:54;;;;;;;34.97;4.17;;;;;;;22.42;54.09;100087.31;7311515;19;129533;-36
2023/01/21 04:12:19;;;;;;;49.47;6.30;;;;;;;22.39;53.88;100087.59;7309147;19;128905;-39
2023/01/21 04:14:45;;;;;;;26.25;3.42;;;;;;;22.29;54.71;100092.78;7311046;19;130290;-38
2023/01/21 04:17:10;;;;;;;23.53;3.53;;;;;;;22.19;54.60;100091.09;7309730;19;129253;-37
2023/01/21 04:19:35;;;;;;;35.63;3.85;;;;;;;22.11;55.02;100093.53;7310132;19;129155;-37
2023/01/21 04:22:01;;;;;;;26.83;3.87;;;;;;;22.05;54.95;100099.31;7312272;19;129430;-37
2023/01/21 04:24:26;;;;;;;22.67;3.22;;;;;;;21.98;54.73;100105.03;7308055;19;129180;-38
2023/01/21 04:26:52;;;;;;;26.05;3.50;;;;;;;21.92;55.02;100105.56;7309770;19;130427;-37
2023/01/21 04:29:17;;;;;;;15.93;2.73;;;;;;;21.83;55.37;100100.28;7310224;19;129604;-38
2023/01/21 04:31:43;;;;;;;21.03;3.30;;;;;;;21.83;55.92;100100.28;7312735;19;129147;-38
2023/01/21 04:34:08;;;;;;;13.18;2.47;;;;;;;21.74;55.81;100101.84;7306078;19;129065;-39
2023/01/21 04:36:34;;;;;;;27.17;3.80;;;;;;;21.79;56.18;100096.25;7307222;19;129795;-39
2023/01/21 04:38:59;;;;;;;22.17;3.47;;;;;;;22.17;54.79;100098.25;7310083;19;129100;-35
2023/01/21 04:41:25;;;;;;;18.67;2.60;;;;;;;22.59;53.91;100105.88;7312757;19;129064;-38
2023/01/21 04:43:50;;;;;;;74.63;8.50;;;;;;;23.14;52.29;100107.06;7306894;19;129653;-39
2023/01/21 04:46:15;;;;;;;33.90;4.00;;;;;;;23.48;50.71;100097.88;7308848;19;129927;-37
2023/01/21 04:48:41;;;;;;;18.57;2.90;;;;;;;23.94;49.86;100092.66;7312336;19;131619;-37
2023/01/21 04:51:06;;;;;;;17.23;2.53;;;;;;;24.13;49.50;100092.63;7310115;19;128817;-39
2023/01/21 04:53:32;;;;;;;20.57;3.07;;;;;;;24.17;48.94;100073.00;7309402;19;129096;-41
2023/01/21 04:55:57;;;;;;;24.10;3.17;;;;;;;24.31;48.71;100096.16;7305032;19;130204;-40
2023/01/21 04:58:22;;;;;;;23.00;3.17;;;;;;;24.41;48.16;100091.69;7311966;19;129189;-38
2023/01/21 05:00:48;;;;;;;21.60;3.07;;;;;;;24.48;48.77;100099.00;7308846;19;129195;-38
2023/01/21 05:03:13;;;;;;;28.63;3.70;;;;;;;24.59;48.19;100099.63;7310027;19;129250;-38
2023/01/21 05:05:39;;;;;;;30.03;3.87;;;;;;;24.62;48.45;100103.75;7309401;19;130121;-38
2023/01/21 05:08:04;;;;;;;15.55;2.50;;;;;;;24.65;48.05;100108.72;7312365;19;129956;-37
2023/01/21 05:10:29;;;;;;;23.00;3.23;;;;;;;24.71;47.64;100106.34;7310471;19;129784;-36
2023/01/21 05:12:55;;;;;;;31.40;4.17;;;;;;;24.64;47.93;100117.59;7306617;19;130844;-37
2023/01/21 05:15:20;;;;;;;39.63;4.30;;;;;;;24.64;47.95;100110.53;7307607;19;129216;-37
2023/01/21 05:17:46;;;;;;;37.80;4.23;;;;;;;24.70;47.78;100122.28;7307846;19;130419;-37
2023/01/21 05:20:11;;;;;;;17.63;2.77;;;;;;;24.63;47.67;100119.38;7309993;19;128847;-40
2023/01/21 05:22:37;;;;;;;28.70;3.50;;;;;;;24.66;47.78;100116.44;7307276;19;129916;-38
2023/01/21 05:25:04;;;;;;;31.67;4.23;;;;;;;24.68;48.05;100124.22;7309617;19;129401;-38
2023/01/21 05:27:29;;;;;;;7.03;1.52;;;;;;;24.63;48.31;100115.91;7308002;19;130953;-36
2023/01/21 05:29:55;;;;;;;26.93;3.10;;;;;;;24.63;47.83;100119.38;7309539;19;130384;-38
2023/01/21 05:32:22;;;;;;;32.25;3.85;;;;;;;24.61;47.98;100107.38;7306628;19;129363;-38
2023/01/21 05:34:47;;;;;;;25.70;3.30;;;;;;;24.66;47.79;100120.91;7308920;19;129741;-38
2023/01/21 05:37:13;;;;;;;34.60;4.43;;;;;;;24.63;48.28;100121.16;7305769;19;129138;-37
2023/01/21 05:39:38;;;;;;;18.52;2.75;;;;;;;24.59;48.40;100128.56;7309524;19;129833;-36
2023/01/21 05:42:03;;;;;;;32.53;3.90;;;;;;;24.55;48.78;100115.81;7309907;19;129579;-38
2023/01/21 05:44:29;;;;;;;15.52;2.47;;;;;;;24.50;48.49;100121.53;7302613;19;129404;-38
2023/01/21 05:46:54;;;;;;;44.03;5.23;;;;;;;24.46;48.69;100115.72;7305563;19;130347;-37
2023/01/21 05:49:19;;;;;;;14.88;2.22;;;;;;;24.50;48.55;100121.53;7305105;19;130590;-39
2023/01/21 05:51:45;;;;;;;28.60;3.33;;;;;;;24.41;48.54;100122.41;7309094;19;129527;-35
2023/01/21 05:54:10;;;;;;;15.33;2.83;;;;;;;24.33;49.08;100120.50;7304145;19;129836;-37
2023/01/21 05:56:36;;;;;;;37.10;4.43;;;;;;;24.33;48.79;100117.88;7303522;19;129063;-39
2023/01/21 05:59:01;;;;;;;35.78;4.32;;;;;;;24.20;49.28;100125.25;7308095;19;128954;-38
2023/01/21 06:01:27;;;;;;;51.17;5.77;;;;;;;24.15;49.65;100131.88;7306898;19;129357;-38
2023/01/21 06:03:52;;;;;;;16.23;2.77;;;;;;;23.99;49.57;100127.25;7304348;19;130130;-39
2023/01/21 06:06:18;;;;;;;10.52;2.22;;;;;;;23.84;50.25;100126.00;7313096;19;129169;-37
2023/01/21 06:08:43;;;;;;;32.80;4.17;;;;;;;23.71;51.24;100122.84;7312247;19;130810;-39
2023/01/21 06:11:08;;;;;;;31.80;3.93;;;;;;;23.54;51.26;100110.44;7316713;19;129956;-38
2023/01/21 06:13:34;;;;;;;27.63;3.90;;;;;;;23.53;51.25;100121.91;7311394;19;130848;-37
2023/01/21 06:15:59;;;;;;;36.92;4.32;;;;;;;23.53;51.54;100129.78;7311819;19;131206;-38
2023/01/21 06:18:25;;;;;;;33.30;3.80;;;;;;;23.52;51.39;100133.34;7316196;19;129482;-37
2023/01/21 06:20:51;;;;;;;25.38;3.70;;;;;;;23.50;50.84;100135.31;7317741;19;129491;-37
2023/01/21 06:23:16;;;;;;;18.67;2.60;;;;;;;23.43;51.69;100149.94;7315518;19;129255;-37
2023/01/21 06:25:42;;;;;;;29.23;4.43;;;;;;;23.43;51.14;100144.69;7313602;19;129394;-38
2023/01/21 06:28:10;;;;;;;28.20;3.63;;;;;;;23.41;51.44;100151.88;7316064;19;129067;-39
2023/01/21 06:30:35;;;;;;;33.20;4.32;;;;;;;23.39;51.70;100145.13;7314463;19;129387;-37
2023/01/21 06:33:01;;;;;;;18.87;2.60;;;;;;;23.44;51.58;100135.84;7314168;19;130034;-35
2023/01/21 06:35:26;;;;;;;36.97;4.38;;;;;;;23.41;51.59;100141.38;7314477;19;129616;-36
2023/01/21 06:37:51;;;;;;;26.92;3.58;;;;;;;23.37;51.22;100139.16;7316821;19;129246;-38
2023/01/21 06:40:17;;;;;;;21.97;3.20;;;;;;;23.42;51.32;100145.66;7317013;19;128860;-38
2023/01/21 06:42:45;;;;;;;14.33;2.50;;;;;;;23.43;51.68;100139.44;7315190;19;129172;-39
2023/01/21 06:45:11;;;;;;;50.92;6.10;;;;;;;23.43;51.22;100136.81;7313651;19;129477;-37
2023/01/21 06:47:39;;;;;;;17.10;2.97;;;;;;;23.43;51.51;100136.81;7313361;19;129000;-40
2023/01/21 06:50:05;;;;;;;18.92;2.83;;;;;;;23.39;51.21;100132.00;7315731;19;129107;-39
2023/01/21 06:52:30;;;;;;;22.73;3.17;;;;;;;23.46;51.68;100154.91;7313941;19;129098;-38
2023/01/21 06:54:55;;;;;;;17.47;2.70;;;;;;;23.47;51.78;100151.31;7314239;19;129332;-39
2023/01/21 06:57:21;;;;;;;26.73;3.53;;;;;;;23.42;51.59;100148.28;7312848;19;129054;-39
2023/01/21 06:59:46;;;;;;;23.50;3.73;;;;;;;23.39;51.51;100147.75;7314540;19;129204;-40
2023/01/21 07:02:12;;;;;;;24.53;3.43;;;;;;;23.31;51.25;100153.66;7313865;19;129520;-35
2023/01/21 07:04:37;;;;;;;10.80;2.67;;;;;;;23.24;51.96;100148.09;7311397;19;130372;-40
2023/01/21 07:07:03;;;;;;;24.93;3.27;;;;;;;23.29;51.89;100146.91;7312791;19;129281;-40
2023/01/21 07:09:28;;;;;;;16.08;3.03;;;;;;;23.17;52.04;100133.88;7314150;19;129091;-36
2023/01/21 07:11:54;;;;;;;31.23;3.97;;;;;;;23.22;51.88;100149.22;7314011;19;129160;-34
2023/01/21 07:14:20;;;;;;;32.47;4.13;;;;;;;23.23;51.71;100148.25;7310628;19;131117;-39
2023/01/21 07:16:45;;;;;;;29.83;3.80;;;;;;;23.21;51.98;100142.28;7307741;19;128975;-39
2023/01/21 07:19:11;;;;;;;38.50;5.07;;;;;;;23.26;52.18;100147.97;7309101;19;129332;-37
2023/01/21 07:21:36;;;;;;;17.92;2.85;;;;;;;23.27;51.47;100147.00;7313230;19;130987;-38
2023/01/21 07:24:02;;;;;;;37.40;4.10;;;;;;;23.29;52.25;100152.97;7310461;19;129367;-36
2023/01/21 07:26:27;;;;;;;24.37;3.60;;;;;;;23.21;51.60;100134.41;7307372;19;131508;-39
2023/01/21 07:28:52;;;;;;;24.27;3.57;;;;;;;23.27;51.93;100152.25;7311754;19;129035;-36
2023/01/21 07:31:18;;;;;;;14.83;2.40;;;;;;;23.32;51.18;100155.31;7312526;19;129427;-39
2023/01/21 07:33:43;;;;;;;89.03;10.03;;;;;;;23.32;52.05;100160.56;7308466;19;131133;-38
2023/01/21 07:36:08;;;;;;;21.63;2.97;;;;;;;23.25;52.12;100172.56;7309864;19;129691;-39
2023/01/21 07:38:34;;;;;;;26.70;3.93;;;;;;;23.29;51.47;100173.94;7313993;19;129048;-37
2023/01/21 07:40:59;;;;;;;7.93;1.90;;;;;;;23.27;51.71;100167.19;7313339;19;129258;-38
2023/01/21 07:43:26;;;;;;;30.93;4.03;;;;;;;23.26;51.77;100166.31;7309352;19;129713;-39
2023/01/21 07:45:52;;;;;;;27.75;3.58;;;;;;;23.33;52.04;100164.00;7312258;19;129270;-36
2023/01/21 07:48:17;;;;;;;18.17;3.13;;;;;;;23.23;51.15;100143.00;7313997;19;129484;-38
2023/01/21 07:50:43;;;;;;;24.60;3.60;;;;;;;23.30;51.71;100169.53;7314182;19;129829;-39
2023/01/21 07:53:10;;;;;;;48.07;5.33;;;;;;;23.26;51.18;100168.94;7311906;19;130516;-36
2023/01/21 07:55:36;;;;;;;29.30;4.07;;;;;;;23.34;51.38;100166.50;7311541;19;129451;-38
2023/01/21 07:58:01;;;;;;;23.00;3.30;;;;;;;23.35;51.63;100172.59;7311723;19;128828;-37
2023/01/21 08:00:28;;;;;;;20.50;3.08;;;;;;;23.12;51.31;100151.00;7312661;19;130927;-39
2023/01/21 08:02:54;;;;;;;26.88;4.47;;;;;;;23.07;46.96;100167.13;7312238;19;130572;-37
2023/01/21 08:05:20;;;;;;;62.33;7.55;;;;;;;22.90;48.35;100151.22;7310776;19;129590;-38
2023/01/21 08:07:45;;;;;;;36.60;4.80;;;;;;;23.22;48.82;100164.97;7310283;19;129224;-39
2023/01/21 08:10:11;;;;;;;37.92;5.22;;;;;;;23.32;49.30;100167.63;7309557;19;130189;-40
2023/01/21 08:12:36;;;;;;;53.72;6.35;;;;;;;23.33;49.01;100162.22;7308773;19;129524;-35
2023/01/21 08:15:02;;;;;;;23.70;3.57;;;;;;;23.45;49.20;100168.19;7310251;19;129709;-36
2023/01/21 08:17:27;;;;;;;32.47;4.37;;;;;;;23.46;49.11;100165.41;7307893;19;129852;-41
2023/01/21 08:19:53;;;;;;;25.70;3.85;;;;;;;23.44;49.43;100172.59;7311880;19;129483;-39
2023/01/21 08:22:18;;;;;;;31.70;4.07;;;;;;;23.37;50.04;100163.59;7312396;19;129872;-37
2023/01/21 08:24:43;;;;;;;26.07;3.97;;;;;;;23.32;50.63;100168.44;7309605;19;129273;-39
2023/01/21 08:27:09;;;;;;;19.15;3.65;;;;;;;23.29;50.08;100173.94;7307966;19;129628;-35
2023/01/21 08:29:34;;;;;;;32.55;4.82;;;;;;;23.21;50.58;100158.88;7310472;19;129603;-39
2023/01/21 08:32:00;;;;;;;27.63;4.03;;;;;;;23.37;50.23;100176.72;7312253;19;130397;-36
2023/01/21 08:34:25;;;;;;;22.85;3.53;;;;;;;23.36;50.36;100167.19;7300638;19;129255;-37
2023/01/21 08:36:51;;;;;;;29.05;3.97;;;;;;;23.40;50.35;100167.75;7308155;19;129525;-39
2023/01/21 08:39:16;;;;;;;43.17;5.57;;;;;;;23.41;50.55;100164.16;7305246;19;129715;-35
2023/01/21 08:41:43;;;;;;;17.30;3.47;;;;;;;23.42;50.09;100160.59;7309418;19;130851;-39
2023/01/21 08:44:08;;;;;;;;;;;;;;;23.43;50.60;100160.44;7309382;19;129348;-39
2023/01/21 08:46:34;;;;;;;25.73;4.10;;;;;;;23.47;49.90;100161.00;7309628;19;131900;-38
2023/01/21 08:48:59;;;;;;;24.57;3.73;;;;;;;23.53;50.26;100148.16;7312155;19;129247;-39
2023/01/21 08:51:24;;;;;;;21.63;3.38;;;;;;;23.58;49.59;100160.84;7311515;19;130612;-39
2023/01/21 08:53:50;;;;;;;7.68;2.28;;;;;;;23.65;49.87;100156.72;7308914;19;129363;-38
2023/01/21 08:56:16;;;;;;;25.90;4.10;;;;;;;23.65;49.81;100159.34;7308199;19;129901;-37
2023/01/21 08:58:42;;;;;;;25.77;4.00;;;;;;;23.61;49.81;100158.78;7311183;19;129870;-40
2023/01/21 09:01:10;;;;;;;36.90;4.57;;;;;;;23.65;50.18;100165.41;7309628;19;129314;-38
2023/01/21 09:03:36;;;;;;;30.92;4.38;;;;;;;23.68;50.23;100170.41;7307802;19;129759;-36
2023/01/21 09:06:03;;;;;;;18.67;3.00;;;;;;;23.66;50.06;100169.69;7309843;19;129338;-38
2023/01/21 09:08:29;;;;;;;34.22;4.50;;;;;;;23.72;49.67;100166.50;7304168;19;131925;-38
2023/01/21 09:11:02;;;;;;;20.57;3.30;;;;;;;23.73;49.83;100170.81;7309431;19;129520;-37
2023/01/21 09:13:35;;;;;;;39.30;5.18;;;;;;;23.80;49.85;100168.44;7303188;19;129916;-34
2023/01/21 09:16:01;;;;;;;16.75;3.10;;;;;;;23.79;49.93;100177.28;7306005;19;130616;-39
2023/01/21 09:18:27;;;;;;;48.13;5.43;;;;;;;23.84;50.11;100175.06;7308037;19;130087;-37
2023/01/21 09:20:52;;;;;;;19.73;3.58;;;;;;;23.75;49.20;100165.41;7309580;19;129485;-36
2023/01/21 09:23:24;;;;;;;45.30;5.55;;;;;;;23.75;50.23;100179.34;7305830;19;129418;-36
2023/01/21 09:26:02;;;;;;;47.55;7.35;;;;;;;23.40;44.34;100179.09;7302826;19;129102;-39
2023/01/21 09:28:28;;;;;;;45.70;6.47;;;;;;;23.37;44.46;100181.16;7308727;19;130619;-38
2023/01/21 09:30:58;;;;;;;30.35;4.93;;;;;;;23.36;44.92;100185.56;7309134;19;130385;-39
2023/01/21 09:33:24;;;;;;;38.15;5.32;;;;;;;23.30;46.15;100178.25;7307594;19;129261;-37
2023/01/21 09:35:54;;;;;;;19.98;4.25;;;;;;;23.30;46.34;100175.63;7306502;19;129137;-39
2023/01/21 09:38:20;;;;;;;18.67;4.15;;;;;;;23.27;47.43;100178.50;7304979;19;130697;-37
2023/01/21 09:40:45;;;;;;;37.60;5.00;;;;;;;23.29;47.57;100173.16;7305611;19;129631;-40
2023/01/21 09:43:22;;;;;;;27.50;4.15;;;;;;;23.30;48.36;100170.38;7307989;19;130891;-40
2023/01/21 09:45:52;;;;;;;30.30;4.73;;;;;;;23.38;48.21;100186.25;7305174;19;129201;-40
2023/01/21 09:48:30;;;;;;;24.10;4.43;;;;;;;23.42;48.42;100174.50;7304896;19;130213;-39
2023/01/21 09:51:01;;;;;;;16.38;4.00;;;;;;;23.45;47.86;100168.19;7308512;19;129649;-41
2023/01/21 09:53:44;;;;;;;33.65;5.07;;;;;;;23.39;48.05;100148.56;7307170;19;129431;-40
2023/01/21 09:56:20;;;;;;;27.67;4.57;;;;;;;23.55;48.64;100169.81;7305761;19;129458;-40
2023/01/21 09:59:02;;;;;;;38.53;5.05;;;;;;;23.66;48.36;100164.44;7306431;19;129491;-34
2023/01/21 10:01:32;;;;;;;31.52;4.75;;;;;;;23.69;47.98;100165.94;7307773;19;130755;-39
2023/01/21 10:04:35;;;;;;;42.20;5.60;;;;;;;23.74;48.64;100167.19;7305501;19;128973;-39
2023/01/21 10:07:14;;;;;;;21.45;3.60;;;;;;;23.82;48.33;100164.69;7307060;19;129822;-35
2023/01/21 10:09:45;;;;;;;44.85;6.45;;;;;;;23.72;48.48;100150.75;7305796;19;129613;-38
2023/01/21 10:12:17;;;;;;;30.23;4.80;;;;;;;23.89;48.21;100163.19;7306659;19;129218;-36
2023/01/21 10:15:17;;;;;;;31.67;4.90;;;;;;;23.91;48.23;100161.25;7304888;19;128917;-37
2023/01/21 10:18:15;;;;;;;51.70;6.70;;;;;;;23.97;48.51;100163.28;7303256;19;129556;-37
2023/01/21 10:21:14;;;;;;;26.65;4.35;;;;;;;23.97;48.89;100165.91;7307149;19;129782;-37
2023/01/21 10:23:48;;;;;;;35.15;5.18;;;;;;;24.05;48.58;100158.19;7300769;19;130245;-37
2023/01/21 10:26:15;;;;;;;28.63;4.18;;;;;;;23.93;48.85;100145.34;7303694;19;129786;-36
2023/01/21 10:28:46;;;;;;;24.48;3.58;;;;;;;24.07;48.91;100156.25;7305423;19;129755;-36
2023/01/21 10:31:22;;;;;;;35.25;4.72;;;;;;;24.14;48.41;100151.25;7307473;19;129712;-39
2023/01/21 10:33:47;;;;;;;56.47;7.78;;;;;;;23.82;45.06;100148.94;7301224;19;130206;-40
2023/01/21 10:36:31;;;;;;;56.17;11.60;;;;;;;23.89;44.16;100139.53;7299468;19;129446;-39
2023/01/21 10:39:30;;;;;;;37.50;13.23;;;;;;;23.88;44.89;100139.69;7307861;19;129721;-36
2023/01/21 10:42:33;;;;;;;65.95;25.30;;;;;;;23.92;45.01;100141.88;7305957;19;130178;-38
2023/01/21 10:45:13;;;;;;;92.88;38.05;;;;;;;23.99;44.96;100140.38;7304372;19;130503;-38
2023/01/21 10:48:04;;;;;;;118.53;53.90;;;;;;;24.00;44.99;100142.03;7304377;19;131047;-34
2023/01/21 10:50:55;;;;;;;162.43;72.32;;;;;;;23.97;44.54;100128.31;7307467;19;129309;-38
2023/01/21 10:53:49;;;;;;;155.55;72.53;;;;;;;23.94;45.33;100131.22;7310480;19;130488;-37
2023/01/21 10:56:20;;;;;;;131.40;70.70;;;;;;;23.73;43.59;100130.59;7306306;19;130814;-38
2023/01/21 10:58:52;;;;;;;118.50;57.50;;;;;;;23.49;42.97;100106.56;7313782;19;129309;-40
2023/01/21 11:01:29;;;;;;;123.97;64.57;;;;;;;23.69;44.68;100119.53;7310589;19;130026;-39
2023/01/21 11:04:18;;;;;;;157.77;65.50;;;;;;;23.73;45.37;100122.72;7309886;19;129586;-36
2023/01/21 11:06:47;;;;;;;98.15;53.63;;;;;;;23.74;45.09;100112.06;7308715;19;129376;-39
2023/01/21 11:09:14;;;;;;;118.00;53.15;;;;;;;23.78;46.11;100108.19;7306277;19;130944;-39
2023/01/21 11:11:41;;;;;;;102.60;50.17;;;;;;;23.82;46.51;100104.31;7311811;19;129979;-37
2023/01/21 11:14:07;;;;;;;125.85;51.40;;;;;;;23.73;46.57;100097.28;7310821;19;130956;-39
2023/01/21 11:16:33;;;;;;;87.77;45.37;;;;;;;23.84;47.04;100115.50;7309564;19;130661;-39
2023/01/21 11:18:58;;;;;;;78.87;41.80;;;;;;;23.86;46.56;100110.94;7311625;19;128959;-37
2023/01/21 11:21:24;;;;;;;79.73;41.27;;;;;;;23.89;47.31;100110.66;7311157;19;129126;-39